Aérodrome :
LOGIN :

S'inscrire | Disclaimer

   EN    FR    IT 

 










Légende :    VFR   VFR Marginal   IFR   IFR Intensif   IFR Très Intensif
Visi : 
Plafond : 
>= 8 km
>= 3000ft
5 à 8 km
1000 à 3000 ft
1500m à 5 km
500 à 1000 ft
800 à 1500m
200 à 500 ft
< 800m
< 200 ft
Symboles :   Orages  Brouillard  Fortes neiges  Fortes précipitations  Vent > 20 kt
SIGMETs :   Divers  Orages  Givrage  Turbulence  Onde Orograph.  Cendres Volcan.






- Altitude de l'aérodrome : 670 ft
- Code IATA : MSQ


UMMS - Minsk - 2

DERNIER METAR :
  • 251230Z 17004G07MPS 150V210 9999 BKN010CB 02/M00 Q1000 R88/D NOSIG

METARs EXPIRÉS :
  • 251200Z 17005G08MPS 150V210 9999 BKN010 02/00 Q1000 R88/D NOSIG
  • 251130Z 20005MPS 9999 BKN010 02/00 Q1001 R88/D NOSIG
  • 251100Z 19003G06MPS 160V230 9999 BKN009 BKN043 02/00 Q1001 R88/CLRD// NOSIG
  • 251048Z 19003G06MPS 150V220 9999 BKN008 BKN043 02/00 Q1001 R88/D NOSIG
  • 251030Z 19005MPS 9000 -SN BKN010 02/M01 Q1002 R88/D NOSIG
  • 251000Z 19006MPS 9999 BKN012 02/M01 Q1002 R88/D NOSIG

TAF TAF UMMS
Valide du 25 à 11h jusqu'au 26 à 12h UTC


251109Z 2511/2612 22005G10MPS 5000 -RASN BR BKN004
TEMPO 2511/2517 22008G13MPS 0600 +SHRASN BKN003 BKN012CB
FM251700 24006MPS 1200 -RA BR BKN003
TEMPO 2517/2607 0500 SHRA FG BKN002 BKN015CB
BECMG 2607/2608 6000 NSW SCT010



MET'MAP, la Météo Aéronautique d'un coup d'oeil ! - Copyright ORBIFLY Décembre 2007 - Disclaimer

ORBIFLY MET'MAP TEAM :

Programmation & Développement : Alexandra Zaïnal
Sur une idée originale de : Baudouin d'Aumeries
Assistance à la programmation : Marc-Olivier Méhu
Soutien technique & logistique : Manuel Goepfert

Contact : metmap@orbifly.com




SOURCES & CREDITS :

   NOAA